Terminal Aerodrome Forecast
Issued by NWS

Current Version | Previous Version | Text Only | Print | Product List | Glossary Off
Versions: 1 2 3 4 5 6 7 8 9 10 11 12 13 14

000
FTUS42 KILM 260500
TAFCRE
TAF
KCRE 260533Z 2606/2706 23006KT P6SM FEW030 SCT070 SCT100
     FM260900 22007KT P6SM SCT035 BKN090
     FM261100 25009KT P6SM SCT030 BKN050 BKN100
     FM261700 26011G18KT P6SM VCSH BKN030
     FM270200 29011G20KT P6SM SCT025 BKN050=

USA.gov is the U.S. government's official web portal to all federal, state and local government web resources and services.